Terminal Aerodrome Forecast
Issued by NWS

Home | Current Version | Previous Version | Text Only | Print | Product List | Glossary On
Versions: 1 2 3 4 5 6 7 8 9 10 11 12 13 14 15 16 17 18 19 20 21 22 23 24 25 26 27 28 29 30 31 32 33 34 35 36
000
FTUS41 KBOX 160534
TAFBAF
TAF
KBAF 160534Z 1606/1706 18010KT P6SM VCSH OVC100
     FM161000 18005KT P6SM VCSH OVC050
     FM161700 19006KT 4SM -SHRA BR OVC020
     FM162200 23005KT 2SM -SHRA BR OVC008
     FM170200 29004KT P6SM VCSH OVC015=

USA.gov is the U.S. government's official web portal to all federal, state and local government web resources and services.